Chalgrove, United Kingdom
Current Conditions -  °F | °C
As of 4:50 PM on Sunday 23 Nov 2014 (Local Time) from EGUB Reporting Station
Broken Clouds Broken Clouds  
Wind Chill: 45°   Ceiling: 14000
Heat Index: 45°   Visibility: 6mi
Dew Point: 45°   Wind: 2mph
Humidity: 100%   Direction: 270°W
Pressure: 30.06"   Gusts: NA
Location:  51.66°N, 1.08°W
Report Text: EGUB 231650Z AUTO 27002KT 9999 // FEW070/// BKN140/// 07/07 Q1018
Loading
Personal Weather Stations






























Interactive Weather Map New forecast layout! Learn more

10-Day Weather Forecast

Advertisements
Track Severe Weather on mobile